createdAt,value
2022-11-24T00:01:23.533Z,92.11
2022-11-24T00:03:58.771Z,92.35
2022-11-24T00:06:27.199Z,93.48
2022-11-24T00:08:55.372Z,92.37
2022-11-24T00:11:31.138Z,92.75
2022-11-24T00:13:59.255Z,93.68
2022-11-24T00:16:35.819Z,93.49
2022-11-24T00:19:06.568Z,93.76
2022-11-24T00:21:33.504Z,93.46
2022-11-24T00:24:00.609Z,93.10
2022-11-24T00:26:33.521Z,93.71
2022-11-24T00:29:03.684Z,93.56
2022-11-24T00:31:35.169Z,93.09
2022-11-24T00:34:05.832Z,93.70
2022-11-24T00:36:34.663Z,92.31
2022-11-24T00:39:14.026Z,92.02
2022-11-24T00:41:42.023Z,92.91
2022-11-24T00:44:09.073Z,93.35
2022-11-24T00:46:36.368Z,92.52
2022-11-24T00:49:03.988Z,93.11
2022-11-24T00:51:31.279Z,92.41
2022-11-24T00:54:00.123Z,93.06
2022-11-24T00:56:29.575Z,92.61
2022-11-24T00:58:56.852Z,92.10
2022-11-24T01:01:27.538Z,91.86
2022-11-24T01:03:55.278Z,91.95
2022-11-24T01:06:26.449Z,93.06
2022-11-24T01:08:54.406Z,93.67
2022-11-24T01:11:26.594Z,92.02
2022-11-24T01:13:57.653Z,93.37
2022-11-24T01:16:27.960Z,93.01
2022-11-24T01:18:55.457Z,93.65
2022-11-24T01:21:23.431Z,93.43
2022-11-24T01:23:50.887Z,93.29
2022-11-24T01:26:22.313Z,92.49
2022-11-24T01:28:57.185Z,92.96
2022-11-24T01:31:26.146Z,92.47
2022-11-24T01:33:53.959Z,91.95
2022-11-24T01:36:22.102Z,91.55
2022-11-24T01:38:49.434Z,92.32
2022-11-24T01:41:23.107Z,91.91
2022-11-24T01:43:52.210Z,92.32
2022-11-24T01:46:43.336Z,92.04
2022-11-24T01:49:17.982Z,91.18
2022-11-24T01:52:01.075Z,92.15
2022-11-24T01:54:36.657Z,93.09
2022-11-24T01:57:32.782Z,93.31
2022-11-24T02:00:10.419Z,92.26
2022-11-24T02:02:45.047Z,92.91
2022-11-24T02:05:21.224Z,93.25
2022-11-24T02:07:49.068Z,93.28
2022-11-24T02:10:17.193Z,93.35
2022-11-24T02:12:48.833Z,92.88
2022-11-24T02:15:17.488Z,93.29
2022-11-24T02:17:44.631Z,93.70
2022-11-24T02:20:13.383Z,93.48
2022-11-24T02:23:17.095Z,92.75
2022-11-24T02:25:59.256Z,92.38
2022-11-24T02:28:29.475Z,93.64
2022-11-24T02:30:59.760Z,92.61
2022-11-24T02:33:27.063Z,92.91
2022-11-24T02:35:54.904Z,93.12
2022-11-24T02:38:34.281Z,93.33
2022-11-24T02:41:07.570Z,92.96
2022-11-24T02:43:44.854Z,93.03
2022-11-24T02:46:12.052Z,93.25
2022-11-24T02:48:39.432Z,92.97
2022-11-24T02:51:06.551Z,93.05
2022-11-24T02:53:33.514Z,93.16
2022-11-24T02:56:00.567Z,93.22
2022-11-24T02:58:27.912Z,93.54
2022-11-24T03:00:55.109Z,94.04
2022-11-24T03:03:22.124Z,93.72
2022-11-24T03:05:49.166Z,93.86
2022-11-24T03:08:16.662Z,93.33
2022-11-24T03:10:43.661Z,93.73
2022-11-24T03:13:10.851Z,94.29
2022-11-24T03:15:38.048Z,93.76
2022-11-24T03:18:05.084Z,93.44
2022-11-24T03:20:32.367Z,93.48
2022-11-24T03:22:59.302Z,93.79
2022-11-24T03:25:26.240Z,94.12
2022-11-24T03:27:57.598Z,93.22
2022-11-24T03:30:24.622Z,93.62
2022-11-24T03:32:53.614Z,93.91
2022-11-24T03:35:23.829Z,93.72
2022-11-24T03:37:50.970Z,93.44
2022-11-24T03:40:18.112Z,93.87
2022-11-24T03:42:45.102Z,93.54
2022-11-24T03:45:30.304Z,94.05
2022-11-24T03:47:58.999Z,94.71
2022-11-24T03:50:25.930Z,93.94
2022-11-24T03:52:52.898Z,94.39
2022-11-24T03:55:19.865Z,94.19
2022-11-24T03:57:46.773Z,94.02
2022-11-24T04:00:14.267Z,94.19
2022-11-24T04:02:41.255Z,94.03
2022-11-24T04:05:09.495Z,94.30
2022-11-24T04:07:36.516Z,94.31
2022-11-24T04:10:04.145Z,93.85
2022-11-24T04:12:46.187Z,94.00
2022-11-24T04:15:18.003Z,94.02
2022-11-24T04:17:47.144Z,94.03
2022-11-24T04:20:15.437Z,93.96
2022-11-24T04:22:43.234Z,93.53
2022-11-24T04:25:11.244Z,94.00
2022-11-24T04:27:39.166Z,94.27
2022-11-24T04:30:07.658Z,93.38
2022-11-24T04:32:34.643Z,93.67
2022-11-24T04:35:01.654Z,94.00
2022-11-24T04:37:28.629Z,94.73
2022-11-24T04:39:55.552Z,94.23
2022-11-24T04:42:22.606Z,93.91
2022-11-24T04:44:49.587Z,93.94
2022-11-24T04:47:21.734Z,93.94
2022-11-24T04:49:49.532Z,94.08
2022-11-24T04:52:22.387Z,93.56
2022-11-24T04:54:50.132Z,93.84
2022-11-24T04:57:20.899Z,93.46
2022-11-24T04:59:48.472Z,93.13
2022-11-24T05:02:15.435Z,93.53
2022-11-24T05:04:42.592Z,93.69
2022-11-24T05:07:19.114Z,93.43
2022-11-24T05:10:06.210Z,93.28
2022-11-24T05:12:33.554Z,93.69
2022-11-24T05:15:02.826Z,93.92
2022-11-24T05:17:33.062Z,93.54
2022-11-24T05:20:00.594Z,93.92
2022-11-24T05:22:29.491Z,93.66
2022-11-24T05:24:56.532Z,94.27
2022-11-24T05:27:23.960Z,94.06
2022-11-24T05:29:50.962Z,94.16
2022-11-24T05:32:17.921Z,93.49
2022-11-24T05:34:44.999Z,94.16
2022-11-24T05:37:11.956Z,93.95
2022-11-24T05:39:38.912Z,94.15
2022-11-24T05:42:26.118Z,94.51
2022-11-24T05:44:53.821Z,94.28
2022-11-24T05:47:21.457Z,94.14
2022-11-24T05:49:48.379Z,93.87
2022-11-24T05:52:16.484Z,93.99
2022-11-24T05:54:43.890Z,93.91
2022-11-24T05:57:10.812Z,94.10
2022-11-24T05:59:37.760Z,94.03
2022-11-24T06:02:04.799Z,94.24
2022-11-24T06:04:32.500Z,94.37
2022-11-24T06:06:59.822Z,93.81
2022-11-24T06:09:26.985Z,93.88
2022-11-24T06:11:53.994Z,94.05
2022-11-24T06:14:21.096Z,93.71
2022-11-24T06:16:48.176Z,93.86
2022-11-24T06:19:15.268Z,94.14
2022-11-24T06:21:42.420Z,94.65
2022-11-24T06:24:09.498Z,94.51
2022-11-24T06:26:36.420Z,94.46
2022-11-24T06:29:03.733Z,94.93
2022-11-24T06:31:30.695Z,94.90
2022-11-24T06:33:57.776Z,95.21
2022-11-24T06:36:25.485Z,95.19
2022-11-24T06:38:52.678Z,95.30
2022-11-24T06:41:20.032Z,94.70
2022-11-24T06:43:47.906Z,95.35
2022-11-24T06:46:14.960Z,95.77
2022-11-24T06:48:41.966Z,95.73
2022-11-24T06:51:12.827Z,94.83
2022-11-24T06:53:40.940Z,95.64
2022-11-24T06:56:15.755Z,95.73
2022-11-24T06:58:47.361Z,95.86
2022-11-24T07:01:20.476Z,95.13
2022-11-24T07:03:48.309Z,95.33
2022-11-24T07:06:17.025Z,95.78
2022-11-24T07:08:44.382Z,96.48
2022-11-24T07:11:16.147Z,95.88
2022-11-24T07:13:44.351Z,95.27
2022-11-24T07:16:24.243Z,96.24
2022-11-24T07:18:54.013Z,96.28
2022-11-24T07:21:23.373Z,96.77
2022-11-24T07:23:56.122Z,96.76
2022-11-24T07:26:24.137Z,96.80
2022-11-24T07:28:51.556Z,96.27
2022-11-24T07:31:21.420Z,96.50
2022-11-24T07:33:50.264Z,96.16
2022-11-24T07:36:17.395Z,96.90
2022-11-24T07:38:45.594Z,96.31
2022-11-24T07:41:15.027Z,96.32
2022-11-24T07:43:42.203Z,96.69
2022-11-24T07:46:13.251Z,96.42
2022-11-24T07:48:40.491Z,96.50
2022-11-24T07:51:08.243Z,97.04
2022-11-24T07:53:36.309Z,96.86
2022-11-24T07:56:06.100Z,96.13
2022-11-24T07:58:35.937Z,96.25
2022-11-24T08:01:15.454Z,97.24
2022-11-24T08:03:43.387Z,96.98
2022-11-24T08:06:31.888Z,96.88
2022-11-24T08:08:59.016Z,96.94
2022-11-24T08:11:28.003Z,97.19
2022-11-24T08:13:54.975Z,97.20
2022-11-24T08:16:22.098Z,97.51
2022-11-24T08:18:51.787Z,97.40
2022-11-24T08:21:19.373Z,97.37
2022-11-24T08:23:46.491Z,97.09
2022-11-24T08:26:17.823Z,96.97
2022-11-24T08:28:46.678Z,97.22
2022-11-24T08:31:18.606Z,97.39
2022-11-24T08:33:46.456Z,97.88
2022-11-24T08:36:17.239Z,97.14
2022-11-24T08:38:45.403Z,97.23
2022-11-24T08:41:16.427Z,97.41
2022-11-24T08:43:43.376Z,97.21
2022-11-24T08:46:14.102Z,97.52
2022-11-24T08:48:41.504Z,98.21
2022-11-24T08:51:14.780Z,98.27
2022-11-24T08:53:43.701Z,98.11
2022-11-24T08:56:12.938Z,97.79
2022-11-24T08:58:41.133Z,97.58
2022-11-24T09:01:16.712Z,97.62
2022-11-24T09:03:50.633Z,97.87
2022-11-24T09:06:24.777Z,97.71
2022-11-24T09:08:54.262Z,98.16
2022-11-24T09:11:22.475Z,97.74
2022-11-24T09:13:49.791Z,97.46
2022-11-24T09:16:20.196Z,97.06
2022-11-24T09:18:47.628Z,97.02
2022-11-24T09:21:18.829Z,97.07
2022-11-24T09:23:50.850Z,97.12
2022-11-24T09:26:28.939Z,97.39
2022-11-24T09:28:57.536Z,96.91
2022-11-24T09:31:31.660Z,96.82
2022-11-24T09:33:59.412Z,96.91
2022-11-24T09:36:27.370Z,97.24
2022-11-24T09:38:54.885Z,97.15
2022-11-24T09:41:48.533Z,96.74
2022-11-24T09:44:55.344Z,96.81
2022-11-24T09:47:59.050Z,96.89
2022-11-24T09:50:30.411Z,96.92
2022-11-24T09:53:23.511Z,97.09
2022-11-24T09:55:55.780Z,97.17
2022-11-24T09:58:45.749Z,97.03
2022-11-24T10:01:28.902Z,97.11
2022-11-24T10:04:01.078Z,96.93
2022-11-24T10:07:01.546Z,97.22
2022-11-24T10:09:48.471Z,97.72
2022-11-24T10:12:44.187Z,97.31
2022-11-24T10:15:44.919Z,97.56
2022-11-24T10:18:36.520Z,96.87
2022-11-24T10:21:18.290Z,97.19
2022-11-24T10:24:17.115Z,96.47
2022-11-24T10:27:16.274Z,96.63
2022-11-24T10:29:44.238Z,96.32
2022-11-24T10:32:35.309Z,96.31
2022-11-24T10:35:36.520Z,96.38
2022-11-24T10:38:31.973Z,96.13
2022-11-24T10:41:15.458Z,96.67
2022-11-24T10:43:43.088Z,96.40
2022-11-24T10:46:16.635Z,96.96
2022-11-24T10:48:50.495Z,97.45
2022-11-24T10:51:40.108Z,96.86
2022-11-24T10:54:19.655Z,96.89
2022-11-24T10:56:50.250Z,96.48
2022-11-24T10:59:24.617Z,96.16
2022-11-24T11:01:52.922Z,96.84
2022-11-24T11:04:34.657Z,95.69
2022-11-24T11:07:23.653Z,95.87
2022-11-24T11:10:11.386Z,96.10
2022-11-24T11:12:45.773Z,96.13
2022-11-24T11:15:30.035Z,95.48
2022-11-24T11:18:00.139Z,95.44
2022-11-24T11:20:36.634Z,94.96
2022-11-24T11:23:22.606Z,95.01
2022-11-24T11:25:49.606Z,95.69
2022-11-24T11:28:30.041Z,95.39
2022-11-24T11:31:19.779Z,94.92
2022-11-24T11:34:35.477Z,94.79
2022-11-24T11:37:04.168Z,94.72
2022-11-24T11:39:49.064Z,94.60
2022-11-24T11:45:31.932Z,94.84
2022-11-24T11:48:01.783Z,94.26
2022-11-24T11:51:24.171Z,94.42
2022-11-24T11:54:24.990Z,94.33
2022-11-24T11:57:18.071Z,93.96
2022-11-24T12:00:02.197Z,94.38
2022-11-24T12:02:37.326Z,94.39
2022-11-24T12:05:41.648Z,93.79
2022-11-24T12:08:44.001Z,94.45
2022-11-24T12:11:33.748Z,94.56
2022-11-24T12:14:29.390Z,94.88
2022-11-24T12:16:59.492Z,95.00
2022-11-24T12:20:15.295Z,93.82
2022-11-24T12:23:11.211Z,93.89
2022-11-24T12:26:24.116Z,93.79
2022-11-24T12:29:57.658Z,93.66
2022-11-24T12:33:13.990Z,93.32
2022-11-24T12:36:03.442Z,93.32
2022-11-24T12:39:06.484Z,94.36
2022-11-24T12:42:01.596Z,94.10
2022-11-24T12:45:00.537Z,94.08
2022-11-24T12:48:25.026Z,94.47
2022-11-24T12:50:58.378Z,94.36
2022-11-24T12:53:31.687Z,93.93
2022-11-24T12:56:12.902Z,93.37
2022-11-24T12:59:21.318Z,93.68
2022-11-24T13:02:16.905Z,93.37
2022-11-24T13:05:14.622Z,93.67
2022-11-24T13:08:05.136Z,93.68
2022-11-24T13:10:54.928Z,93.80
2022-11-24T13:13:26.029Z,93.52
2022-11-24T13:16:07.037Z,93.29
2022-11-24T13:18:56.864Z,93.78
2022-11-24T13:21:47.203Z,93.64
2022-11-24T13:24:17.560Z,93.63
2022-11-24T13:27:13.796Z,93.88
2022-11-24T13:29:51.372Z,93.69
2022-11-24T13:32:21.397Z,93.64
2022-11-24T13:34:54.818Z,93.57
2022-11-24T13:37:29.028Z,94.11
2022-11-24T13:40:11.698Z,93.82
2022-11-24T13:43:01.985Z,93.83
2022-11-24T13:45:45.027Z,94.14
2022-11-24T13:48:21.657Z,94.23
2022-11-24T13:50:54.795Z,94.00
2022-11-24T13:53:40.454Z,93.79
2022-11-24T13:56:13.432Z,94.03
2022-11-24T13:58:59.836Z,93.86
2022-11-24T14:01:42.245Z,94.16
2022-11-24T14:04:34.971Z,93.81
2022-11-24T14:07:10.953Z,94.17
2022-11-24T14:09:48.015Z,93.98
2022-11-24T14:12:20.509Z,94.37
2022-11-24T14:14:50.673Z,94.38
2022-11-24T14:17:27.515Z,94.10
2022-11-24T14:19:58.470Z,94.31
2022-11-24T14:22:39.016Z,93.71
2022-11-24T14:25:18.879Z,94.32
2022-11-24T14:27:46.281Z,94.51
2022-11-24T14:30:13.531Z,94.46
2022-11-24T14:32:42.188Z,93.95
2022-11-24T14:35:29.668Z,94.11
2022-11-24T14:37:57.171Z,94.00
2022-11-24T14:40:54.343Z,94.06
2022-11-24T14:43:32.636Z,93.96
2022-11-24T14:46:18.901Z,93.59
2022-11-24T14:48:53.169Z,94.13
2022-11-24T14:51:32.245Z,94.08
2022-11-24T14:54:06.906Z,94.14
2022-11-24T14:56:39.081Z,93.72
2022-11-24T14:59:27.346Z,93.73
2022-11-24T15:01:54.957Z,93.93
2022-11-24T15:07:27.147Z,94.08
2022-11-24T15:09:58.348Z,94.09
2022-11-24T15:12:48.058Z,94.07
2022-11-24T15:15:15.036Z,94.06
2022-11-24T15:17:55.470Z,94.45
2022-11-24T15:20:45.410Z,94.01
2022-11-24T15:23:28.223Z,93.83
2022-11-24T15:26:17.783Z,94.21
2022-11-24T15:28:46.882Z,94.08
2022-11-24T15:31:14.469Z,94.28
2022-11-24T15:33:42.129Z,94.35
2022-11-24T15:36:09.163Z,93.12
2022-11-24T15:38:36.084Z,94.13
2022-11-24T15:41:19.856Z,93.69
2022-11-24T15:43:47.344Z,93.64
2022-11-24T15:46:14.589Z,93.67
2022-11-24T15:48:41.677Z,93.57
2022-11-24T15:51:14.035Z,93.89
2022-11-24T15:53:58.865Z,93.72
2022-11-24T15:56:34.757Z,93.42
2022-11-24T15:59:03.027Z,93.63
2022-11-24T16:01:33.093Z,93.42
2022-11-24T16:04:01.384Z,93.44
2022-11-24T16:06:28.475Z,93.60
2022-11-24T16:08:55.602Z,93.34
2022-11-24T16:11:23.370Z,93.46
2022-11-24T16:13:53.272Z,93.49
2022-11-24T16:16:22.825Z,93.56
2022-11-24T16:18:50.537Z,92.90
2022-11-24T16:21:17.604Z,93.00
2022-11-24T16:23:45.527Z,93.11
2022-11-24T16:26:12.489Z,93.36
2022-11-24T16:28:39.443Z,92.93
2022-11-24T16:31:06.483Z,93.26
2022-11-24T16:33:33.485Z,92.89
2022-11-24T16:36:00.426Z,92.88
2022-11-24T16:38:27.351Z,93.13
2022-11-24T16:40:56.275Z,92.75
2022-11-24T16:43:24.400Z,93.26
2022-11-24T16:46:22.553Z,92.93
2022-11-24T16:48:52.672Z,92.78
2022-11-24T16:51:22.664Z,93.13
2022-11-24T16:54:00.426Z,92.93
2022-11-24T16:56:28.830Z,93.25
2022-11-24T16:58:56.075Z,93.21
2022-11-24T17:01:23.288Z,92.90
2022-11-24T17:03:50.347Z,93.24
2022-11-24T17:06:17.761Z,93.40
2022-11-24T17:08:46.715Z,92.84
2022-11-24T17:11:17.171Z,92.79
2022-11-24T17:13:45.708Z,93.09
2022-11-24T17:16:16.681Z,92.58
2022-11-24T17:18:44.039Z,92.83
2022-11-24T17:21:17.746Z,92.62
2022-11-24T17:23:45.453Z,92.88
2022-11-24T17:26:16.240Z,92.80
2022-11-24T17:28:43.923Z,92.69
2022-11-24T17:31:22.504Z,92.81
2022-11-24T17:33:51.324Z,92.45
2022-11-24T17:36:18.723Z,92.52
2022-11-24T17:38:45.840Z,92.65
2022-11-24T17:41:12.895Z,92.71
2022-11-24T17:43:39.939Z,92.57
2022-11-24T17:46:07.590Z,92.81
2022-11-24T17:48:35.736Z,92.50
2022-11-24T17:51:09.879Z,92.45
2022-11-24T17:53:37.497Z,92.33
2022-11-24T17:56:06.123Z,92.16
2022-11-24T17:58:39.695Z,92.03
2022-11-24T18:01:11.016Z,92.26
2022-11-24T18:03:40.037Z,91.84
2022-11-24T18:06:15.724Z,92.11
2022-11-24T18:08:45.547Z,92.36
2022-11-24T18:11:28.869Z,92.19
2022-11-24T18:14:02.315Z,91.79
2022-11-24T18:16:32.595Z,92.00
2022-11-24T18:19:10.932Z,91.79
2022-11-24T18:21:40.909Z,91.69
2022-11-24T18:24:09.764Z,91.90
2022-11-24T18:26:38.313Z,92.08
2022-11-24T18:29:05.410Z,91.57
2022-11-24T18:31:34.211Z,91.66
2022-11-24T18:34:02.615Z,91.83
2022-11-24T18:36:30.804Z,91.90
2022-11-24T18:39:07.224Z,91.85
2022-11-24T18:41:35.054Z,91.49
2022-11-24T18:44:02.989Z,91.92
2022-11-24T18:46:30.046Z,91.48
2022-11-24T18:48:57.094Z,91.46
2022-11-24T18:51:24.197Z,91.26
2022-11-24T18:53:54.511Z,91.20
2022-11-24T18:56:21.602Z,91.34
2022-11-24T18:58:52.439Z,91.30
2022-11-24T19:01:28.935Z,91.02
2022-11-24T19:03:59.447Z,90.77
2022-11-24T19:06:35.116Z,91.13
2022-11-24T19:09:12.941Z,90.73
2022-11-24T19:11:43.908Z,90.66
2022-11-24T19:14:15.616Z,90.88
2022-11-24T19:16:43.661Z,90.89
2022-11-24T19:19:12.582Z,90.93
2022-11-24T19:21:41.067Z,90.84
2022-11-24T19:24:10.036Z,90.82
2022-11-24T19:26:38.469Z,90.71
2022-11-24T19:29:07.676Z,90.82
2022-11-24T19:31:35.512Z,90.37
2022-11-24T19:34:03.325Z,90.84
2022-11-24T19:36:31.162Z,90.76
2022-11-24T19:38:59.425Z,90.47
2022-11-24T19:41:30.016Z,90.75
2022-11-24T19:43:58.637Z,90.80
2022-11-24T19:46:29.209Z,90.77
2022-11-24T19:48:59.477Z,90.71
2022-11-24T19:51:30.716Z,90.30
2022-11-24T19:53:58.296Z,90.14
2022-11-24T19:56:29.510Z,90.57
2022-11-24T19:58:57.250Z,90.27
2022-11-24T20:01:28.246Z,90.40
2022-11-24T20:04:14.791Z,90.40
2022-11-24T20:06:45.983Z,90.82
2022-11-24T20:09:16.372Z,90.41
2022-11-24T20:11:43.914Z,90.19
2022-11-24T20:14:17.537Z,90.33
2022-11-24T20:16:46.970Z,90.43
2022-11-24T20:19:16.520Z,90.65
2022-11-24T20:21:46.315Z,90.52
2022-11-24T20:24:21.772Z,90.88
2022-11-24T20:26:59.991Z,90.55
2022-11-24T20:29:33.583Z,90.48
2022-11-24T20:32:00.646Z,90.83
2022-11-24T20:34:28.336Z,90.50
2022-11-24T20:36:55.441Z,90.58
2022-11-24T20:39:26.950Z,90.97
2022-11-24T20:41:55.485Z,90.65
2022-11-24T20:44:23.704Z,91.26
2022-11-24T20:46:50.965Z,90.98
2022-11-24T20:49:20.574Z,90.71
2022-11-24T20:51:47.835Z,91.09
2022-11-24T20:54:17.917Z,91.06
2022-11-24T20:56:46.573Z,90.96
2022-11-24T20:59:23.128Z,90.73
2022-11-24T21:01:51.937Z,91.37
2022-11-24T21:04:22.972Z,90.75
2022-11-24T21:06:50.251Z,90.55
2022-11-24T21:09:18.002Z,91.36
2022-11-24T21:11:45.890Z,91.11
2022-11-24T21:14:13.028Z,91.24
2022-11-24T21:16:42.033Z,91.32
2022-11-24T21:19:15.000Z,91.19
2022-11-24T21:21:42.754Z,91.34
2022-11-24T21:24:18.712Z,91.30
2022-11-24T21:26:50.337Z,91.08
2022-11-24T21:29:19.371Z,91.27
2022-11-24T21:31:48.028Z,91.59
2022-11-24T21:34:18.321Z,91.35
2022-11-24T21:36:45.736Z,91.42
2022-11-24T21:39:14.826Z,91.38
2022-11-24T21:41:42.209Z,91.20
2022-11-24T21:44:11.434Z,91.32
2022-11-24T21:46:44.116Z,91.13
2022-11-24T21:49:13.523Z,91.35
2022-11-24T21:51:42.775Z,91.38
2022-11-24T21:54:09.748Z,91.79
2022-11-24T21:56:36.705Z,91.82
2022-11-24T21:59:03.678Z,91.69
2022-11-24T22:01:30.701Z,92.01
2022-11-24T22:03:57.763Z,91.48
2022-11-24T22:06:24.855Z,91.54
2022-11-24T22:08:51.970Z,91.61
2022-11-24T22:11:22.404Z,91.51
2022-11-24T22:13:50.526Z,91.65
2022-11-24T22:16:20.847Z,91.99
2022-11-24T22:18:48.385Z,91.50
2022-11-24T22:21:23.681Z,92.12
2022-11-24T22:23:52.503Z,91.65
2022-11-24T22:26:22.537Z,92.07
2022-11-24T22:28:50.643Z,91.54
2022-11-24T22:31:32.503Z,91.51
2022-11-24T22:34:00.787Z,91.29
2022-11-24T22:36:29.962Z,91.79
2022-11-24T22:39:04.939Z,91.84
2022-11-24T22:41:34.284Z,92.09
2022-11-24T22:44:01.621Z,92.15
2022-11-24T22:46:31.141Z,91.64
2022-11-24T22:49:00.377Z,91.44
2022-11-24T22:51:33.598Z,91.55
2022-11-24T22:54:03.490Z,90.97
2022-11-24T22:56:32.391Z,91.24
2022-11-24T22:59:04.460Z,91.47
2022-11-24T23:01:33.787Z,91.67
2022-11-24T23:04:01.096Z,91.44
2022-11-24T23:06:31.387Z,91.74
2022-11-24T23:09:00.933Z,91.46
2022-11-24T23:11:38.580Z,91.92
2022-11-24T23:14:14.640Z,92.03
2022-11-24T23:16:42.606Z,92.49
2022-11-24T23:19:09.908Z,92.73
2022-11-24T23:21:40.905Z,92.61
2022-11-24T23:24:09.558Z,92.28
2022-11-24T23:26:39.783Z,92.31
2022-11-24T23:29:08.112Z,92.35
2022-11-24T23:31:36.289Z,92.15
2022-11-24T23:34:04.521Z,92.52
2022-11-24T23:36:32.182Z,92.40
2022-11-24T23:39:08.511Z,92.21
2022-11-24T23:41:35.981Z,92.35
2022-11-24T23:44:03.208Z,91.99
2022-11-24T23:46:30.358Z,92.27
2022-11-24T23:48:57.677Z,92.18
2022-11-24T23:51:32.490Z,92.24
2022-11-24T23:54:01.139Z,92.92
2022-11-24T23:56:33.726Z,92.69
2022-11-24T23:59:03.299Z,92.31
